بیروت, لبنان

09:22 AM EEST on اكتبر 02, 2014 (GMT +0300)
Beirut International | Change Station
CLOSE
Current Station
Airport
Location: Beirut,
Elevation: 62 ft
Nearby Weather Stations

Elev 62 ft 33.82 °N, 35.49 °E | Updated 22 minutes ago

Scattered Clouds
ابرهای پراکنده
75 °F
Feels Like 75 °F
N
4
باد متغير باد from شرق

امروز
High -- | Low -- °F
--% Chance of Precip.
دیروز
High -- | Low -- °F
Precip. -- در
6:32 AM 6:21 PM
ربع اول, 55% visible
فشار 29.98 در
ديد 5.0 مايل، ميل (در برابر كيلومتر
ابری Few 2600 ft
ابرهای پراکنده 7000 ft
قطره شبنم 59 °F
رطوبت 57%
بارش باران 0.00 در
برف عمیق Not available.
مادون قرمز 2 out of 12
Pollen Not available.
تمیزی هوا Not available.
Flu Activity Not available.
METAR OLBA 020600Z 09003KT 8000 FEW026 SCT070 24/15 Q1015 NOSIG

More Conditions Fewer Conditions

فشار 29.98 در
ديد 5.0 مايل، ميل (در برابر كيلومتر
ابری Few 2600 ft
ابرهای پراکنده 7000 ft
قطره شبنم 59 °F
رطوبت 57%
بارش باران 0.00 در
برف عمیق Not available.
مادون قرمز 2 out of 12
Pollen Not available.
تمیزی هوا Not available.
Flu Activity Not available.
METAR OLBA 020600Z 09003KT 8000 FEW026 SCT070 24/15 Q1015 NOSIG

More Conditions Fewer Conditions

10-Day Weather Forecast

Almanac

ستاره شناسی

Oct. 02, 2014 Rise Set
وقت حقیقی 6:32 AM EEST 6:21 PM EEST
تاریک و روشن اجتماعی 6:08 AM EEST 6:46 PM EEST
تاریک روشن دریایی 5:39 AM EEST 7:15 PM EEST
شفق و فلق نجومی 5:10 AM EEST 7:44 PM EEST
ماه 1:55 PM EEST ماه غروب نمى كند
میزان روشنایی روز 12h 38m
طول روز
11h 48m
Tomorrow will be 2m 4s shorter.
ربع اول, 55% of the Moon is Illuminated
امروز
ربع اول
Oct 8
ماه کامل
Oct 15
ربع آخر
Oct 23
New
Oct 30
ربع اول

Yesterday's Extremes

Country Highs Country Lows

Community

WunderPhotos

Upload Photos

1,758,198 photos uploaded!

WunderBlogs® & News

Nearby

تمیزی هوا

Not available.

عمق برف

Not available.

Earthquake Activity

شهر Distance Mag. Time & Date
No recent earthquake activity has been reported nearby.
Minimum magnitude displayed is 2.5.

Coastal Water Temperatures

منطقه درجه حرارت
No Stations Reporting

Nearby Weather Stations